Santa Rita do Passa Quatro, Brazil
Current Conditions -  °F | °C
As of 12:00 PM on Thursday 29 Jan 2015 (Local Time) from SBRP Reporting Station
Broken Clouds Broken Clouds  
Wind Chill: 77°   Ceiling: 10000
Heat Index: 79°   Visibility: 6mi
Dew Point: 66°   Wind: 2mph
Humidity: 69%   Direction: 70°ENE
Pressure: 30.06"   Gusts: NA
Location:  21.71°S, 47.48°W
Report Text: SBRP 291400Z 07002KT 9999 SCT021 BKN100 25/19 Q1018
Loading
Personal Weather Stations






























Interactive Weather Map New forecast layout! Learn more

10-Day Weather Forecast

Advertisements
Track Severe Weather on mobile